Terminal Aerodrome Forecast
Issued by NWS

Home | Current Version | Previous Version | Text Only | Print | Product List | Glossary On
Versions: 1 2 3 4 5 6 7 8 9 10 11 12 13 14 15 16 17 18 19 20 21 22 23 24 25 26
000
FTUS41 KBOX 031723
TAFHYA
TAF
KHYA 031723Z 0318/0418 21013G22KT P6SM SKC
     FM032200 22012KT P6SM VCSH OVC030
     FM032300 23010G17KT 5SM BR OVC020
     FM040300 25010G17KT 1SM BR BKN010
     FM040400 25009KT 4SM BR SCT015
     FM041000 25006KT P6SM BKN150=

USA.gov is the U.S. government's official web portal to all federal, state and local government web resources and services.